VILK/LKO METAR and TAF weather

Enter ICAO airport designator
Station Type Date Time Source
VILK METAR 2020/12/05 05:00 UTC NOAA

VILK 050500Z 00000KT 0800 R27/2000 FG NSC 21/18 Q1015 NOSIG


Station Type Date Time Source
VILK Decoded METAR 2020/12/05 05:00 UTC NOAA

Lucknow / Amausi, India (VILK) 26-45N 080-53E 128M
Dec 05, 2020 - 12:00 AM EST / 2020.12.05 0500 UTC
Wind: Calm:0
Visibility: less than 1 mile:0
Weather: fog
Temperature: 69 F (21 C)
Dew Point: 64 F (18 C)
Relative Humidity: 82%
Pressure (altimeter): 29.97 in. Hg (1015 hPa)
ob: VILK 050500Z 00000KT 0800 R27/2000 FG NSC 21/18 Q1015 NOSIG
cycle: 5

Station Type Date Time Source
VILK TAF 2020/12/04 18:18 UTC NOAA

TAF VILK 041700Z 0418/0524 00000KT 0600 MIFG FG NSC
BECMG 0500/0502 0300 FG
BECMG 0504/0506 0600 FG
BECMG 0506/0508 32004KT 1000 BR
BECMG 0508/0510 2000 HZ
BECMG 0514/0516 00000KT 1200 BR
BECMG 0518/0520 0500 FG

Example: see airport list